createdAt,value
2017-09-16T00:01:10.985Z,9.80
2017-09-16T00:03:38.765Z,10.00
2017-09-16T00:06:06.539Z,10.10
2017-09-16T00:08:34.339Z,10.00
2017-09-16T00:11:03.017Z,10.00
2017-09-16T00:13:31.610Z,9.80
2017-09-16T00:16:00.152Z,9.80
2017-09-16T00:18:27.925Z,9.80
2017-09-16T00:20:55.745Z,9.80
2017-09-16T00:23:23.525Z,9.70
2017-09-16T00:25:51.651Z,9.70
2017-09-16T00:28:19.415Z,9.60
2017-09-16T00:30:47.200Z,9.70
2017-09-16T00:33:15.773Z,9.80
2017-09-16T00:35:43.544Z,9.80
2017-09-16T00:38:11.370Z,9.90
2017-09-16T00:40:39.925Z,10.00
2017-09-16T00:43:07.766Z,10.00
2017-09-16T00:45:35.578Z,10.00
2017-09-16T00:48:04.125Z,10.00
2017-09-16T00:50:32.013Z,10.00
2017-09-16T00:53:00.576Z,10.00
2017-09-16T00:55:28.376Z,10.10
2017-09-16T00:57:56.205Z,10.00
2017-09-16T01:00:23.991Z,10.00
2017-09-16T01:02:52.605Z,10.00
2017-09-16T01:05:20.380Z,10.00
2017-09-16T01:07:48.158Z,10.00
2017-09-16T01:10:15.983Z,10.00
2017-09-16T01:12:43.773Z,10.00
2017-09-16T01:15:12.373Z,9.90
2017-09-16T01:17:40.155Z,9.90
2017-09-16T01:20:08.721Z,9.80
2017-09-16T01:22:36.533Z,9.80
2017-09-16T01:25:04.337Z,9.70
2017-09-16T01:27:32.180Z,9.70
2017-09-16T01:29:59.973Z,9.60
2017-09-16T01:32:27.753Z,9.50
2017-09-16T01:34:56.354Z,9.40
2017-09-16T01:37:24.153Z,9.40
2017-09-16T01:39:51.983Z,9.40
2017-09-16T01:42:19.753Z,9.30
2017-09-16T01:44:47.512Z,9.20
2017-09-16T01:47:15.298Z,9.20
2017-09-16T01:49:43.067Z,9.10
2017-09-16T01:52:10.886Z,9.10
2017-09-16T01:54:38.637Z,9.10
2017-09-16T01:57:07.166Z,9.10
2017-09-16T01:59:35.009Z,9.10
2017-09-16T02:02:02.775Z,9.10
2017-09-16T02:04:30.593Z,9.10
2017-09-16T02:06:59.123Z,9.00
2017-09-16T02:09:26.887Z,8.90
2017-09-16T02:11:54.682Z,9.00
2017-09-16T02:14:22.437Z,9.10
2017-09-16T02:16:50.273Z,9.00
2017-09-16T02:19:18.065Z,9.00
2017-09-16T02:21:45.844Z,9.00
2017-09-16T02:24:14.429Z,9.10
2017-09-16T02:26:42.970Z,9.10
2017-09-16T02:29:10.800Z,9.00
2017-09-16T02:31:38.569Z,9.10
2017-09-16T02:34:06.357Z,9.00
2017-09-16T02:36:34.156Z,9.00
2017-09-16T02:39:02.685Z,9.00
2017-09-16T02:41:30.525Z,9.00
2017-09-16T02:43:58.283Z,9.00
2017-09-16T02:46:26.052Z,9.10
2017-09-16T02:48:53.838Z,9.10
2017-09-16T02:51:21.620Z,9.20
2017-09-16T02:53:49.442Z,9.20
2017-09-16T02:56:17.211Z,9.30
2017-09-16T02:58:44.977Z,9.40
2017-09-16T03:01:12.775Z,9.50
2017-09-16T03:03:40.542Z,9.60
2017-09-16T03:06:08.361Z,9.60
2017-09-16T03:08:36.125Z,9.60
2017-09-16T03:11:03.879Z,9.50
2017-09-16T03:13:31.673Z,9.50
2017-09-16T03:15:59.439Z,9.50
2017-09-16T03:18:27.278Z,9.50
2017-09-16T03:20:55.054Z,9.50
2017-09-16T03:23:22.832Z,9.40
2017-09-16T03:25:50.639Z,9.50
2017-09-16T03:28:18.413Z,9.60
2017-09-16T03:30:46.235Z,9.50
2017-09-16T03:33:14.779Z,9.60
2017-09-16T03:35:42.540Z,9.50
2017-09-16T03:38:10.326Z,9.50
2017-09-16T03:40:38.089Z,9.50
2017-09-16T03:43:05.907Z,9.50
2017-09-16T03:45:33.668Z,9.50
2017-09-16T03:48:01.427Z,9.50
2017-09-16T03:50:29.221Z,9.50
2017-09-16T03:52:56.996Z,9.50
2017-09-16T03:55:24.807Z,9.50
2017-09-16T03:57:52.568Z,9.50
2017-09-16T04:00:20.377Z,9.60
2017-09-16T04:02:48.200Z,9.60
2017-09-16T04:05:15.967Z,9.60
2017-09-16T04:07:43.773Z,9.60
2017-09-16T04:10:11.537Z,9.60
2017-09-16T04:12:39.308Z,9.70
2017-09-16T04:15:07.892Z,9.70
2017-09-16T04:17:36.447Z,9.60
2017-09-16T04:20:04.291Z,9.60
2017-09-16T04:22:32.075Z,9.60
2017-09-16T04:24:59.844Z,9.70
2017-09-16T04:27:27.638Z,9.70
2017-09-16T04:29:55.390Z,9.80
2017-09-16T04:32:23.961Z,9.80
2017-09-16T04:34:52.504Z,9.80
2017-09-16T04:37:20.271Z,9.80
2017-09-16T04:39:48.073Z,9.90
2017-09-16T04:42:16.626Z,9.90
2017-09-16T04:44:44.444Z,9.90
2017-09-16T04:47:12.201Z,10.00
2017-09-16T04:49:39.979Z,10.10
2017-09-16T04:52:07.787Z,10.10
2017-09-16T04:54:36.342Z,10.20
2017-09-16T04:57:04.175Z,10.20
2017-09-16T04:59:31.939Z,10.20
2017-09-16T05:01:59.714Z,10.30
2017-09-16T05:04:27.523Z,10.30
2017-09-16T05:06:56.054Z,10.30
2017-09-16T05:09:23.883Z,10.20
2017-09-16T05:11:51.693Z,10.30
2017-09-16T05:14:19.454Z,10.30
2017-09-16T05:16:47.245Z,10.30
2017-09-16T05:19:15.018Z,10.30
2017-09-16T05:21:42.835Z,10.40
2017-09-16T05:24:10.606Z,10.40
2017-09-16T05:26:38.375Z,10.40
2017-09-16T05:29:06.163Z,10.40
2017-09-16T05:31:34.715Z,10.50
2017-09-16T05:34:03.305Z,10.60
2017-09-16T05:36:31.069Z,10.50
2017-09-16T05:38:58.823Z,10.60
2017-09-16T05:41:26.617Z,10.70
2017-09-16T05:43:55.141Z,10.90
2017-09-16T05:46:22.951Z,10.80
2017-09-16T05:48:51.473Z,11.00
2017-09-16T05:51:19.247Z,11.00
2017-09-16T05:53:47.043Z,11.20
2017-09-16T05:56:14.816Z,11.20
2017-09-16T05:58:43.397Z,11.40
2017-09-16T06:01:11.929Z,11.50
2017-09-16T06:03:39.687Z,11.50
2017-09-16T06:06:07.493Z,11.70
2017-09-16T06:08:35.250Z,11.80
2017-09-16T06:11:03.113Z,11.90
2017-09-16T06:13:31.670Z,12.10
2017-09-16T06:15:59.432Z,12.10
2017-09-16T06:18:27.225Z,12.20
2017-09-16T06:20:55.778Z,12.50
2017-09-16T06:23:23.626Z,12.50
2017-09-16T06:25:51.385Z,12.60
2017-09-16T06:28:19.184Z,12.80
2017-09-16T06:30:46.986Z,13.20
2017-09-16T06:33:14.757Z,13.40
2017-09-16T06:35:43.352Z,14.10
2017-09-16T06:38:11.138Z,14.10
2017-09-16T06:40:38.905Z,14.60
2017-09-16T06:43:06.713Z,15.40
2017-09-16T06:45:34.470Z,16.80
2017-09-16T06:48:03.087Z,18.00
2017-09-16T06:50:30.842Z,17.90
2017-09-16T06:52:58.629Z,18.50
2017-09-16T06:55:26.413Z,19.50
2017-09-16T06:57:54.172Z,20.60
2017-09-16T07:00:22.022Z,22.10
2017-09-16T07:02:49.776Z,23.60
2017-09-16T07:05:17.530Z,24.30
2017-09-16T07:07:45.311Z,24.70
2017-09-16T07:10:13.070Z,26.00
2017-09-16T07:12:40.878Z,26.60
2017-09-16T07:15:08.640Z,26.30
2017-09-16T07:17:36.400Z,25.00
2017-09-16T07:20:04.186Z,23.80
2017-09-16T07:22:31.980Z,23.50
2017-09-16T07:24:59.778Z,24.40
2017-09-16T07:27:28.300Z,26.30
2017-09-16T07:29:56.049Z,26.30
2017-09-16T07:32:23.839Z,28.10
2017-09-16T07:34:51.611Z,27.60
2017-09-16T07:37:19.426Z,26.40
2017-09-16T07:39:47.174Z,26.10
2017-09-16T07:42:14.920Z,25.00
2017-09-16T07:44:43.470Z,22.80
2017-09-16T07:47:11.220Z,22.70
2017-09-16T07:49:39.043Z,22.50
2017-09-16T07:52:06.801Z,21.80
2017-09-16T07:54:35.478Z,21.60
2017-09-16T07:57:04.046Z,21.00
2017-09-16T07:59:32.580Z,20.90
2017-09-16T08:02:00.501Z,20.80
2017-09-16T08:04:29.028Z,20.20
2017-09-16T08:06:57.437Z,20.20
2017-09-16T08:09:25.234Z,20.00
2017-09-16T08:11:52.994Z,19.30
2017-09-16T08:14:20.793Z,19.30
2017-09-16T08:16:48.553Z,19.00
2017-09-16T08:19:16.346Z,18.80
2017-09-16T08:21:44.105Z,18.40
2017-09-16T08:24:11.918Z,18.30
2017-09-16T08:26:39.693Z,18.30
2017-09-16T08:29:07.444Z,18.20
2017-09-16T08:31:35.246Z,17.90
2017-09-16T08:34:02.989Z,17.80
2017-09-16T08:36:30.808Z,17.60
2017-09-16T08:38:58.575Z,17.30
2017-09-16T08:41:26.336Z,17.20
2017-09-16T08:43:54.166Z,17.20
2017-09-16T08:46:22.699Z,16.90
2017-09-16T08:48:50.512Z,16.80
2017-09-16T08:51:19.045Z,16.80
2017-09-16T08:53:47.580Z,16.90
2017-09-16T08:56:16.146Z,16.90
2017-09-16T08:58:43.904Z,16.90
2017-09-16T09:01:11.738Z,17.00
2017-09-16T09:03:39.494Z,17.00
2017-09-16T09:06:07.340Z,17.00
2017-09-16T09:08:35.129Z,16.80
2017-09-16T09:11:02.895Z,16.70
2017-09-16T09:13:30.707Z,17.00
2017-09-16T09:15:58.484Z,17.00
2017-09-16T09:18:26.244Z,16.80
2017-09-16T09:20:54.038Z,16.80
2017-09-16T09:23:21.818Z,16.80
2017-09-16T09:25:49.658Z,16.70
2017-09-16T09:28:17.417Z,16.70
2017-09-16T09:30:45.201Z,16.60
2017-09-16T09:33:13.052Z,16.60
2017-09-16T09:35:40.819Z,16.60
2017-09-16T09:38:08.643Z,16.80
2017-09-16T09:40:36.513Z,16.80
2017-09-16T09:43:04.275Z,16.80
2017-09-16T09:45:32.071Z,16.70
2017-09-16T09:47:59.843Z,16.50
2017-09-16T09:50:27.661Z,16.30
2017-09-16T09:52:55.441Z,16.10
2017-09-16T09:55:25.105Z,15.90
2017-09-16T09:57:53.219Z,15.80
2017-09-16T10:00:20.994Z,15.90
2017-09-16T10:02:48.906Z,16.00
2017-09-16T10:05:16.958Z,16.10
2017-09-16T10:07:44.743Z,16.00
2017-09-16T10:10:12.567Z,15.80
2017-09-16T10:12:40.962Z,15.80
2017-09-16T10:15:09.824Z,16.50
2017-09-16T10:17:37.621Z,16.50
2017-09-16T10:20:06.152Z,16.60
2017-09-16T10:22:33.954Z,16.60
2017-09-16T10:25:02.484Z,16.40
2017-09-16T10:27:30.312Z,16.40
2017-09-16T10:29:58.838Z,16.20
2017-09-16T10:32:26.609Z,16.10
2017-09-16T10:34:54.440Z,16.20
2017-09-16T10:37:22.206Z,16.30
2017-09-16T10:39:50.010Z,16.50
2017-09-16T10:42:17.775Z,16.50
2017-09-16T10:44:45.558Z,16.60
2017-09-16T10:47:14.134Z,16.90
2017-09-16T10:49:42.659Z,17.20
2017-09-16T10:52:10.467Z,17.20
2017-09-16T10:54:39.844Z,17.40
2017-09-16T10:57:07.620Z,17.40
2017-09-16T10:59:36.205Z,17.30
2017-09-16T11:02:04.928Z,17.30
2017-09-16T11:04:32.738Z,17.40
2017-09-16T11:07:00.498Z,17.60
2017-09-16T11:09:28.265Z,17.50
2017-09-16T11:11:56.064Z,17.60
2017-09-16T11:14:23.821Z,17.70
2017-09-16T11:16:52.398Z,17.70
2017-09-16T11:19:20.918Z,17.70
2017-09-16T11:21:49.458Z,18.00
2017-09-16T11:24:18.024Z,18.10
2017-09-16T11:26:46.588Z,18.10
2017-09-16T11:29:14.406Z,18.10
2017-09-16T11:31:42.165Z,18.30
2017-09-16T11:34:09.929Z,18.30
2017-09-16T11:36:37.747Z,18.30
2017-09-16T11:39:07.233Z,18.40
2017-09-16T11:41:35.032Z,18.40
2017-09-16T11:44:03.565Z,17.90
2017-09-16T11:46:31.327Z,17.90
2017-09-16T11:48:59.120Z,17.60
2017-09-16T11:51:27.653Z,17.60
2017-09-16T11:53:55.450Z,17.50
2017-09-16T11:56:23.211Z,17.00
2017-09-16T11:58:50.987Z,17.00
2017-09-16T12:01:19.553Z,17.30
2017-09-16T12:03:47.326Z,17.30
2017-09-16T12:06:15.924Z,17.30
2017-09-16T12:08:44.445Z,17.10
2017-09-16T12:11:12.263Z,17.00
2017-09-16T12:13:40.062Z,17.00
2017-09-16T12:16:07.861Z,17.00
2017-09-16T12:18:35.683Z,16.90
2017-09-16T12:21:03.450Z,16.90
2017-09-16T12:23:31.211Z,16.90
2017-09-16T12:25:59.001Z,16.80
2017-09-16T12:28:26.761Z,16.60
2017-09-16T12:30:54.581Z,16.60
2017-09-16T12:33:22.340Z,16.60
2017-09-16T12:35:50.151Z,16.40
2017-09-16T12:38:17.946Z,16.30
2017-09-16T12:40:46.674Z,16.00
2017-09-16T12:43:14.519Z,16.00
2017-09-16T12:45:42.278Z,15.80
2017-09-16T12:48:10.038Z,15.60
2017-09-16T12:50:37.833Z,15.40
2017-09-16T12:53:05.608Z,15.20
2017-09-16T12:55:33.428Z,14.90
2017-09-16T12:58:01.196Z,14.80
2017-09-16T13:00:28.961Z,14.80
2017-09-16T13:02:56.766Z,14.80
2017-09-16T13:05:24.539Z,14.70
2017-09-16T13:07:52.378Z,14.80
2017-09-16T13:10:20.162Z,14.80
2017-09-16T13:12:47.933Z,14.80
2017-09-16T13:15:16.534Z,14.80
2017-09-16T13:17:44.300Z,14.80
2017-09-16T13:20:12.129Z,14.80
2017-09-16T13:22:39.896Z,14.70
2017-09-16T13:25:08.442Z,14.60
2017-09-16T13:27:36.274Z,14.60
2017-09-16T13:30:04.062Z,14.60
2017-09-16T13:32:31.895Z,14.60
2017-09-16T13:34:59.752Z,14.60
2017-09-16T13:37:27.519Z,14.60
2017-09-16T13:39:55.341Z,14.50
2017-09-16T13:42:23.115Z,14.50
2017-09-16T13:44:51.712Z,14.60
2017-09-16T13:47:19.487Z,14.50
2017-09-16T13:49:47.258Z,14.50
2017-09-16T13:52:15.046Z,14.50
2017-09-16T13:54:42.809Z,14.40
2017-09-16T13:57:10.642Z,14.40
2017-09-16T13:59:38.495Z,14.40
2017-09-16T14:02:06.268Z,14.50
2017-09-16T14:04:34.058Z,14.40
2017-09-16T14:07:01.830Z,14.40
2017-09-16T14:09:29.701Z,14.40
2017-09-16T14:11:57.466Z,14.50
2017-09-16T14:14:25.223Z,14.60
2017-09-16T14:16:53.089Z,14.70
2017-09-16T14:19:20.846Z,14.90
2017-09-16T14:21:48.662Z,15.10
2017-09-16T14:24:16.428Z,15.10
2017-09-16T14:26:44.187Z,15.20
2017-09-16T14:29:11.970Z,15.30
2017-09-16T14:31:39.730Z,15.40
2017-09-16T14:34:07.558Z,15.40
2017-09-16T14:36:36.078Z,15.20
2017-09-16T14:39:03.898Z,15.20
2017-09-16T14:41:32.445Z,14.80
2017-09-16T14:44:00.233Z,14.80
2017-09-16T14:46:28.822Z,14.60
2017-09-16T14:48:57.350Z,14.50
2017-09-16T14:51:25.105Z,14.50
2017-09-16T14:53:52.905Z,14.40
2017-09-16T14:56:21.436Z,14.30
2017-09-16T14:58:49.278Z,14.30
2017-09-16T15:01:17.038Z,14.30
2017-09-16T15:03:44.812Z,14.20
2017-09-16T15:06:12.595Z,14.10
2017-09-16T15:08:40.357Z,14.00
2017-09-16T15:11:08.199Z,14.10
2017-09-16T15:13:35.966Z,14.00
2017-09-16T15:16:03.743Z,14.00
2017-09-16T15:18:31.529Z,14.00
2017-09-16T15:20:59.345Z,14.00
2017-09-16T15:23:27.175Z,14.00
2017-09-16T15:25:55.712Z,14.00
2017-09-16T15:28:23.478Z,14.00
2017-09-16T15:30:51.266Z,14.00
2017-09-16T15:33:19.068Z,14.00
2017-09-16T15:35:46.883Z,14.10
2017-09-16T15:38:14.662Z,14.10
2017-09-16T15:40:42.458Z,14.10
2017-09-16T15:43:10.270Z,14.00
2017-09-16T15:45:38.026Z,13.90
2017-09-16T15:48:05.846Z,13.80
2017-09-16T15:50:33.609Z,13.90
2017-09-16T15:53:01.379Z,13.80
2017-09-16T15:55:29.171Z,13.80
2017-09-16T15:57:56.928Z,13.80
2017-09-16T16:00:24.737Z,13.80
2017-09-16T16:02:52.524Z,13.80
2017-09-16T16:05:21.047Z,13.70
2017-09-16T16:07:48.855Z,13.70
2017-09-16T16:10:16.621Z,13.70
2017-09-16T16:12:44.473Z,13.70
2017-09-16T16:15:12.263Z,13.70
2017-09-16T16:17:40.034Z,13.70
2017-09-16T16:20:07.825Z,13.70
2017-09-16T16:22:35.603Z,13.70
2017-09-16T16:25:16.290Z,13.60
2017-09-16T16:27:53.122Z,13.60
2017-09-16T16:30:32.855Z,13.60
2017-09-16T16:33:00.617Z,13.60
2017-09-16T16:35:28.485Z,13.60
2017-09-16T16:37:56.266Z,13.60
2017-09-16T16:40:24.822Z,13.60
2017-09-16T16:42:52.624Z,13.60
2017-09-16T16:45:20.401Z,13.60
2017-09-16T16:47:48.222Z,13.50
2017-09-16T16:50:15.982Z,13.50
2017-09-16T16:52:43.763Z,13.50
2017-09-16T16:55:12.335Z,13.40
2017-09-16T16:57:40.111Z,13.40
2017-09-16T17:00:08.746Z,13.30
2017-09-16T17:02:36.552Z,13.30
2017-09-16T17:05:05.083Z,13.20
2017-09-16T17:07:32.871Z,13.20
2017-09-16T17:10:00.627Z,13.10
2017-09-16T17:12:28.590Z,13.10
2017-09-16T17:14:56.369Z,13.10
2017-09-16T17:17:24.153Z,13.10
2017-09-16T17:19:52.711Z,13.10
2017-09-16T17:22:20.476Z,13.10
2017-09-16T17:24:49.092Z,13.10
2017-09-16T17:27:16.872Z,13.00
2017-09-16T17:29:44.661Z,13.10
2017-09-16T17:32:12.450Z,13.20
2017-09-16T17:34:40.985Z,13.20
2017-09-16T17:37:08.881Z,13.10
2017-09-16T17:39:36.669Z,13.10
2017-09-16T17:42:04.444Z,13.10
2017-09-16T17:44:32.234Z,13.10
2017-09-16T17:46:59.993Z,13.10
2017-09-16T17:49:27.818Z,13.10
2017-09-16T17:51:56.351Z,13.10
2017-09-16T17:54:24.117Z,13.10
2017-09-16T17:56:51.906Z,13.10
2017-09-16T17:59:20.433Z,13.20
2017-09-16T18:01:49.032Z,13.10
2017-09-16T18:04:16.818Z,13.10
2017-09-16T18:06:44.588Z,13.00
2017-09-16T18:09:12.384Z,12.90
2017-09-16T18:11:40.168Z,12.90
2017-09-16T18:14:08.011Z,12.90
2017-09-16T18:16:35.781Z,13.00
2017-09-16T18:19:03.555Z,13.00
2017-09-16T18:21:32.484Z,13.00
2017-09-16T18:24:00.271Z,13.00
2017-09-16T18:26:29.073Z,12.90
2017-09-16T18:28:57.156Z,12.90
2017-09-16T18:31:24.922Z,12.90
2017-09-16T18:33:52.733Z,13.00
2017-09-16T18:36:21.275Z,12.90
2017-09-16T18:38:49.259Z,12.90
2017-09-16T18:41:17.036Z,12.90
2017-09-16T18:43:44.803Z,12.90
2017-09-16T18:46:13.402Z,12.90
2017-09-16T18:48:41.175Z,12.90
2017-09-16T18:51:09.144Z,12.80
2017-09-16T18:53:36.910Z,12.90
2017-09-16T18:56:04.673Z,12.80
2017-09-16T18:58:32.472Z,12.80
2017-09-16T19:01:00.245Z,12.80
2017-09-16T19:03:28.077Z,12.70
2017-09-16T19:05:55.835Z,12.70
2017-09-16T19:08:23.617Z,12.80
2017-09-16T19:10:51.423Z,12.80
2017-09-16T19:13:19.198Z,12.80
2017-09-16T19:15:47.022Z,12.80
2017-09-16T19:18:14.796Z,12.70
2017-09-16T19:20:43.351Z,12.70
2017-09-16T19:23:11.147Z,12.70
2017-09-16T19:25:39.679Z,12.80
2017-09-16T19:28:19.076Z,12.70
2017-09-16T19:30:57.914Z,12.80
2017-09-16T19:33:37.005Z,12.80
2017-09-16T19:36:16.179Z,12.60
2017-09-16T19:38:54.830Z,12.70
2017-09-16T19:41:31.699Z,12.70
2017-09-16T19:44:12.171Z,12.70
2017-09-16T19:46:50.445Z,12.70
2017-09-16T19:49:18.322Z,12.70
2017-09-16T19:51:46.100Z,12.70
2017-09-16T19:54:13.873Z,12.70
2017-09-16T19:56:42.436Z,12.60
2017-09-16T19:59:10.227Z,12.60
2017-09-16T20:01:38.836Z,12.60
2017-09-16T20:04:06.618Z,12.60
2017-09-16T20:06:35.427Z,12.60
2017-09-16T20:09:03.240Z,12.60
2017-09-16T20:11:31.028Z,12.60
2017-09-16T20:13:59.156Z,12.70
2017-09-16T20:16:27.608Z,12.60
2017-09-16T20:18:56.815Z,12.60
2017-09-16T20:21:24.669Z,12.50
2017-09-16T20:23:52.501Z,12.50
2017-09-16T20:26:20.418Z,12.40
2017-09-16T20:28:48.260Z,12.40
2017-09-16T20:31:16.153Z,12.40
2017-09-16T20:33:43.990Z,12.30
2017-09-16T20:36:12.711Z,12.20
2017-09-16T20:38:40.569Z,12.20
2017-09-16T20:41:08.569Z,12.20
2017-09-16T20:43:37.332Z,12.20
2017-09-16T20:46:05.348Z,12.20
2017-09-16T20:48:33.174Z,12.20
2017-09-16T20:51:01.069Z,12.20
2017-09-16T20:53:28.984Z,12.20
2017-09-16T20:55:56.762Z,12.10
2017-09-16T20:58:24.790Z,12.10
2017-09-16T21:00:53.330Z,12.00
2017-09-16T21:03:21.209Z,12.00
2017-09-16T21:05:49.148Z,11.90
2017-09-16T21:08:16.948Z,11.70
2017-09-16T21:10:44.751Z,11.70
2017-09-16T21:13:12.532Z,11.70
2017-09-16T21:15:40.423Z,11.70
2017-09-16T21:18:08.216Z,11.70
2017-09-16T21:20:35.992Z,11.60
2017-09-16T21:23:04.647Z,11.60
2017-09-16T21:25:32.433Z,11.60
2017-09-16T21:28:01.099Z,11.70
2017-09-16T21:30:28.951Z,11.60
2017-09-16T21:32:56.766Z,11.70
2017-09-16T21:35:24.754Z,11.70
2017-09-16T21:37:53.346Z,11.90
2017-09-16T21:40:21.182Z,11.90
2017-09-16T21:42:48.957Z,11.90
2017-09-16T21:45:16.730Z,11.90
2017-09-16T21:47:44.533Z,12.00
2017-09-16T21:50:13.069Z,12.00
2017-09-16T21:52:40.894Z,12.00
2017-09-16T21:55:08.680Z,12.00
2017-09-16T21:57:36.460Z,12.00
2017-09-16T22:00:04.335Z,12.00
2017-09-16T22:02:32.145Z,11.90
2017-09-16T22:04:59.993Z,11.90
2017-09-16T22:07:28.530Z,11.90
2017-09-16T22:09:56.311Z,11.90
2017-09-16T22:12:24.160Z,11.90
2017-09-16T22:14:51.933Z,12.00
2017-09-16T22:17:19.762Z,12.00
2017-09-16T22:19:47.601Z,12.00
2017-09-16T22:22:15.386Z,12.00
2017-09-16T22:24:43.225Z,12.00
2017-09-16T22:27:11.017Z,12.00
2017-09-16T22:29:38.870Z,12.10
2017-09-16T22:32:06.663Z,12.00
2017-09-16T22:34:34.453Z,12.00
2017-09-16T22:37:03.348Z,12.00
2017-09-16T22:39:31.905Z,11.90
2017-09-16T22:41:59.769Z,11.90
2017-09-16T22:44:28.320Z,11.90
2017-09-16T22:46:56.087Z,11.90
2017-09-16T22:49:23.889Z,11.90
2017-09-16T22:51:51.653Z,11.90
2017-09-16T22:54:20.249Z,11.80
2017-09-16T22:56:48.016Z,11.90
2017-09-16T22:59:15.788Z,11.80
2017-09-16T23:01:43.587Z,11.90
2017-09-16T23:04:11.358Z,11.80
2017-09-16T23:06:39.172Z,11.70
2017-09-16T23:09:06.940Z,11.60
2017-09-16T23:11:34.700Z,11.50
2017-09-16T23:14:02.495Z,11.40
2017-09-16T23:16:30.253Z,11.30
2017-09-16T23:18:58.082Z,11.20
2017-09-16T23:21:25.847Z,11.20
2017-09-16T23:23:53.610Z,11.10
2017-09-16T23:26:21.412Z,11.00
2017-09-16T23:28:49.181Z,10.80
2017-09-16T23:31:17.007Z,10.70
2017-09-16T23:33:44.774Z,10.70
2017-09-16T23:36:12.546Z,10.70
2017-09-16T23:38:40.342Z,10.70
2017-09-16T23:41:08.120Z,10.70
2017-09-16T23:43:37.097Z,10.70
2017-09-16T23:46:05.632Z,10.60
2017-09-16T23:48:33.387Z,10.60
2017-09-16T23:51:01.178Z,10.70
2017-09-16T23:53:28.945Z,10.60
2017-09-16T23:55:56.777Z,10.60
2017-09-16T23:58:24.551Z,10.60
